Time;durP1;ratioP1;P1;durP2;ratioP2;P2;SDS_P1;SDS_P2;PMS_P1;PMS_P2;Temp;Humidity;BMP_temperature;BMP_pressure;BME280_temperature;BME280_humidity;BME280_pressure;Samples;Min_cycle;Max_cycle;Signal;HPM_P1;HPM_P2
2021/12/05 00:22:28;;;;;;;15.05;8.35;;;;;;;-1.52;64.65;99446.88;4825974;29;20050;-86
2021/12/05 00:24:58;;;;;;;14.93;9.23;;;;;;;-1.53;64.75;99447.66;4825834;29;20496;-85
2021/12/05 00:27:33;;;;;;;16.25;9.02;;;;;;;-1.52;64.86;99455.41;4826818;29;20069;-84
2021/12/05 00:46:25;;;;;;;22.85;11.80;;;;;;;-1.33;65.02;99443.44;4823530;29;20455;-85
2021/12/05 00:56:02;;;;;;;26.13;10.60;;;;;;;-1.43;65.19;99436.16;4824110;29;20050;-88
2021/12/05 01:11:17;;;;;;;24.40;10.98;;;;;;;-1.72;65.96;99453.63;4823695;29;20075;-86
2021/12/05 01:16:55;;;;;;;22.95;10.30;;;;;;;-1.61;65.89;99462.69;4822665;29;20064;-86
2021/12/05 01:19:31;;;;;;;23.38;10.50;;;;;;;-1.55;66.30;99447.59;4822284;29;20455;-85
2021/12/05 01:22:13;;;;;;;21.38;9.68;;;;;;;-1.51;66.31;99451.16;4815365;29;20059;-85
2021/12/05 01:27:22;;;;;;;23.90;10.55;;;;;;;-1.60;66.82;99448.19;4823560;29;20050;-86
2021/12/05 01:29:58;;;;;;;26.27;11.05;;;;;;;-1.50;66.83;99460.63;4823408;29;20051;-86
2021/12/05 01:38:10;;;;;;;22.83;10.30;;;;;;;-1.46;67.05;99445.44;4823415;29;20065;-85
2021/12/05 01:43:49;;;;;;;22.23;10.00;;;;;;;-1.43;67.45;99441.28;4825129;29;20141;-87
2021/12/05 02:02:49;;;;;;;17.33;8.75;;;;;;;-1.13;67.56;99455.41;4833265;29;20090;-87
2021/12/05 02:30:09;;;;;;;19.38;9.07;;;;;;;-0.94;67.18;99448.53;4836077;29;20061;-85
2021/12/05 02:32:56;;;;;;;17.58;8.90;;;;;;;-0.91;67.41;99453.78;4831909;29;20129;-83
2021/12/05 02:36:29;;;;;;;15.85;8.60;;;;;;;-0.96;67.34;99448.44;4835936;29;20077;-84
2021/12/05 02:43:43;;;;;;;18.35;8.90;;;;;;;-1.01;67.50;99424.31;4828810;29;20062;-83
2021/12/05 02:46:13;;;;;;;18.13;8.35;;;;;;;-1.15;67.87;99410.91;4825744;29;20481;-83
2021/12/05 02:48:43;;;;;;;17.73;8.57;;;;;;;-1.10;67.96;99422.25;4826923;29;20058;-84
2021/12/05 02:51:21;;;;;;;19.17;9.43;;;;;;;-0.94;67.37;99443.41;4826904;29;20409;-86
2021/12/05 02:54:02;;;;;;;22.00;9.05;;;;;;;-0.95;67.69;99450.19;4827053;29;20140;-82
2021/12/05 02:56:37;;;;;;;22.85;9.10;;;;;;;-0.91;68.16;99456.34;4825761;29;20504;-85
2021/12/05 02:59:57;;;;;;;21.38;10.02;;;;;;;-0.89;67.75;99450.47;4840366;29;20065;-83
2021/12/05 03:02:06;;;;;;;20.77;9.90;;;;;;;-0.99;67.66;99430.38;4845386;29;20153;-84
2021/12/05 03:04:40;;;;;;;19.85;9.90;;;;;;;-0.93;67.70;99448.56;4845892;29;20066;-83
2021/12/05 03:07:11;;;;;;;19.27;9.82;;;;;;;-0.85;67.89;99446.34;4845793;29;20061;-82
2021/12/05 03:09:43;;;;;;;18.83;9.23;;;;;;;-0.81;68.05;99445.66;4831867;29;20054;-83
2021/12/05 03:12:19;;;;;;;22.08;10.15;;;;;;;-0.87;68.36;99420.63;4833289;29;20054;-85
2021/12/05 03:14:49;;;;;;;23.98;10.27;;;;;;;-0.79;67.85;99433.78;4830777;29;20065;-85
2021/12/05 03:17:18;;;;;;;18.48;9.32;;;;;;;-0.75;68.18;99433.09;4831161;29;20050;-84
2021/12/05 03:19:45;;;;;;;19.88;9.80;;;;;;;-0.73;68.02;99445.97;4829183;29;20061;-84
2021/12/05 03:22:14;;;;;;;19.48;10.13;;;;;;;-0.80;68.33;99431.16;4827956;29;20054;-86
2021/12/05 03:24:42;;;;;;;20.70;9.55;;;;;;;-0.79;68.55;99441.47;4830017;29;20054;-85
2021/12/05 03:27:14;;;;;;;18.80;9.63;;;;;;;-0.78;68.30;99427.81;4824076;29;20068;-84
2021/12/05 03:29:42;;;;;;;19.73;9.32;;;;;;;-0.84;68.24;99409.63;4823687;29;20054;-85
2021/12/05 03:32:09;;;;;;;21.45;9.80;;;;;;;-0.74;68.07;99410.88;4834679;29;20106;-84
2021/12/05 03:34:38;;;;;;;19.63;9.73;;;;;;;-0.61;68.57;99436.22;4849004;29;20034;-85
2021/12/05 03:40:49;;;;;;;20.98;10.13;;;;;;;-0.71;68.71;99447.81;4828073;29;20145;-84
2021/12/05 03:43:19;;;;;;;18.67;9.95;;;;;;;-0.64;68.21;99444.66;4826334;29;20058;-84
2021/12/05 03:45:51;;;;;;;21.13;10.65;;;;;;;-0.66;68.54;99455.69;4824460;29;20153;-84
2021/12/05 03:48:22;;;;;;;21.05;10.35;;;;;;;-0.84;68.77;99420.78;4824526;29;20054;-84
2021/12/05 03:50:57;;;;;;;25.63;11.90;;;;;;;-0.65;69.03;99450.59;4824463;29;20054;-84
2021/12/05 03:53:27;;;;;;;22.63;10.75;;;;;;;-0.62;69.25;99463.56;4824525;29;20058;-85
2021/12/05 03:55:57;;;;;;;24.25;11.23;;;;;;;-0.63;69.34;99448.09;4825674;29;20046;-86
2021/12/05 03:58:28;;;;;;;24.00;10.93;;;;;;;-0.55;69.48;99461.25;4824694;29;20095;-84
2021/12/05 04:01:04;;;;;;;21.98;10.88;;;;;;;-0.48;69.11;99456.44;4824761;29;20060;-85
2021/12/05 04:03:34;;;;;;;25.05;10.77;;;;;;;-0.47;68.76;99470.16;4809598;29;20157;-83
2021/12/05 04:06:06;;;;;;;26.08;11.32;;;;;;;-0.52;69.25;99462.25;4825794;29;20077;-88
2021/12/05 04:08:35;;;;;;;24.98;11.38;;;;;;;-0.50;69.34;99462.31;4826079;29;20082;-84
2021/12/05 04:11:17;;;;;;;23.88;10.82;;;;;;;-0.47;69.06;99468.47;4824273;29;20058;-85
2021/12/05 04:13:51;;;;;;;25.40;11.23;;;;;;;-0.49;69.70;99470.09;4824028;29;20058;-86
2021/12/05 04:16:21;;;;;;;;;;;;;;;-0.63;68.98;99468.63;4824785;29;20061;-83
2021/12/05 04:18:52;;;;;;;24.73;11.13;;;;;;;-0.55;69.44;99474.09;4824390;29;19929;-85
2021/12/05 04:21:22;;;;;;;23.88;12.13;;;;;;;-0.61;69.30;99446.47;4825774;29;20064;-84
2021/12/05 04:23:52;;;;;;;25.13;11.83;;;;;;;-0.49;69.54;99464.94;4826036;29;20092;-83
2021/12/05 04:26:23;;;;;;;24.80;11.82;;;;;;;-0.47;69.54;99470.16;4829608;29;20448;-85
2021/12/05 04:28:51;;;;;;;31.30;12.05;;;;;;;-0.51;69.16;99458.00;4833217;29;20058;-83
2021/12/05 04:31:22;;;;;;;27.85;11.63;;;;;;;-0.48;69.17;99474.41;4811638;29;20225;-85
2021/12/05 04:33:51;;;;;;;27.55;11.40;;;;;;;-0.53;69.92;99475.91;4824597;29;20081;-83
2021/12/05 04:36:20;;;;;;;26.42;11.70;;;;;;;-0.55;69.67;99463.81;4823995;29;20050;-85
2021/12/05 04:38:55;;;;;;;27.38;12.57;;;;;;;-0.63;69.84;99463.50;4823846;29;20061;-85
2021/12/05 04:41:23;;;;;;;25.65;11.15;;;;;;;-0.60;69.73;99483.28;4825698;29;20090;-86
2021/12/05 04:43:52;;;;;;;26.88;12.07;;;;;;;-0.68;69.74;99483.84;4814844;29;20077;-84
2021/12/05 04:46:25;;;;;;;24.30;11.52;;;;;;;-0.72;70.57;99491.34;4821119;29;20091;-84
2021/12/05 04:48:56;;;;;;;25.92;12.15;;;;;;;-0.67;70.70;99487.28;4812726;29;20062;-86
2021/12/05 04:51:31;;;;;;;24.38;12.00;;;;;;;-0.64;70.26;99487.41;4809925;29;20051;-83
2021/12/05 04:54:03;;;;;;;27.38;12.10;;;;;;;-0.64;70.87;99498.56;4805595;29;20423;-85
2021/12/05 04:56:31;;;;;;;25.10;10.43;;;;;;;-0.65;70.99;99496.78;4806482;29;20512;-88
2021/12/05 04:59:00;;;;;;;22.58;11.18;;;;;;;-0.63;70.51;99478.88;4805404;29;20066;-87
2021/12/05 05:01:31;;;;;;;28.70;12.63;;;;;;;-0.51;70.49;99492.25;4790567;29;20066;-84
2021/12/05 05:03:59;;;;;;;27.67;12.63;;;;;;;-0.56;70.47;99500.53;4804546;29;20055;-85
2021/12/05 05:06:27;;;;;;;25.08;12.02;;;;;;;-0.67;70.39;99472.78;4806521;29;20508;-86
2021/12/05 05:08:57;;;;;;;27.38;12.13;;;;;;;-0.66;71.35;99499.31;4806841;29;20055;-86
2021/12/05 05:11:26;;;;;;;24.33;11.70;;;;;;;-0.59;71.30;99503.88;4807646;29;20055;-86
2021/12/05 05:13:55;;;;;;;25.63;12.10;;;;;;;-0.57;70.72;99507.38;4824949;29;20054;-85
2021/12/05 05:16:25;;;;;;;26.83;13.48;;;;;;;-0.67;70.98;99520.63;4824431;29;20061;-87
2021/12/05 05:18:57;;;;;;;23.75;11.63;;;;;;;-0.86;70.89;99498.44;4823250;29;20062;-86
2021/12/05 05:21:47;;;;;;;27.10;12.07;;;;;;;-0.91;70.97;99515.31;4825152;29;20073;-83
2021/12/05 05:29:46;;;;;;;24.05;11.73;;;;;;;-0.99;72.22;99509.88;4806210;29;20542;-86
2021/12/05 05:43:23;;;;;;;27.35;13.25;;;;;;;-1.29;72.70;99502.56;4807046;29;20073;-87
2021/12/05 05:46:05;;;;;;;24.10;11.75;;;;;;;-1.34;72.56;99504.03;4809070;29;20090;-85
2021/12/05 05:48:48;;;;;;;28.48;13.02;;;;;;;-1.33;73.15;99515.19;4811191;29;20061;-86
2021/12/05 05:51:16;;;;;;;28.08;12.85;;;;;;;-1.41;72.82;99502.00;4806826;29;20112;-84
2021/12/05 05:53:47;;;;;;;25.88;12.32;;;;;;;-1.31;73.59;99534.94;4806969;29;20419;-87
2021/12/05 05:56:21;;;;;;;26.63;11.98;;;;;;;-1.21;73.05;99540.47;4808089;29;20069;-85
2021/12/05 05:59:05;;;;;;;27.73;13.13;;;;;;;-1.24;73.77;99520.72;4808496;29;20162;-85
2021/12/05 06:01:55;;;;;;;25.95;12.75;;;;;;;-1.12;72.82;99534.09;4808902;29;20477;-86
2021/12/05 06:04:20;;;;;;;27.27;13.05;;;;;;;-1.12;72.76;99535.75;4810611;29;20075;-84
2021/12/05 06:06:50;;;;;;;;;;;;;;;-1.22;72.70;99537.03;4815159;29;20075;-87
2021/12/05 06:09:17;;;;;;;27.95;13.20;;;;;;;-1.30;73.62;99526.44;4795645;29;19936;-85
2021/12/05 06:11:48;;;;;;;28.05;12.93;;;;;;;-1.15;73.58;99531.38;4809943;29;20059;-88
2021/12/05 06:14:18;;;;;;;28.48;13.70;;;;;;;-1.12;73.63;99539.22;4810549;29;20058;-87
2021/12/05 06:16:46;;;;;;;29.38;14.98;;;;;;;-1.17;73.83;99520.19;4811471;29;20073;-89
2021/12/05 06:19:14;;;;;;;29.60;13.57;;;;;;;-0.97;73.55;99548.38;4814031;29;20054;-87
2021/12/05 06:21:43;;;;;;;26.85;13.30;;;;;;;-1.05;73.92;99537.81;4809859;29;20070;-87
2021/12/05 06:24:12;;;;;;;27.80;13.27;;;;;;;-1.06;73.49;99526.66;4809679;29;20063;-88
2021/12/05 06:26:41;;;;;;;27.20;13.00;;;;;;;-0.99;74.30;99543.22;4814697;29;20101;-86
2021/12/05 06:29:19;;;;;;;31.13;13.65;;;;;;;-0.99;73.88;99542.31;4804260;29;20088;-87
2021/12/05 06:32:16;;;;;;;28.38;13.20;;;;;;;-1.02;74.09;99552.44;4810983;29;20085;-84
2021/12/05 06:37:47;;;;;;;28.05;13.35;;;;;;;-0.95;73.99;99549.31;4810860;29;20058;-86
2021/12/05 06:40:20;;;;;;;26.58;13.43;;;;;;;-0.84;74.10;99550.66;4822718;29;20081;-82
2021/12/05 06:43:04;;;;;;;27.00;13.80;;;;;;;-0.83;74.33;99535.34;4827314;29;20087;-85
2021/12/05 06:48:18;;;;;;;28.20;14.32;;;;;;;-0.72;73.81;99550.34;4823919;29;20500;-86
2021/12/05 06:50:47;;;;;;;27.27;13.50;;;;;;;-0.59;73.43;99570.56;4818465;29;20066;-86
2021/12/05 06:53:18;;;;;;;28.65;14.05;;;;;;;-0.64;73.45;99555.00;4822786;29;20055;-87
2021/12/05 06:55:48;;;;;;;28.35;14.05;;;;;;;-0.68;73.53;99565.06;4817413;29;20082;-87
2021/12/05 06:58:18;;;;;;;29.42;14.65;;;;;;;-0.65;73.82;99573.75;4809245;29;20490;-85
2021/12/05 07:00:45;;;;;;;27.77;12.95;;;;;;;-0.72;73.49;99564.03;4808550;29;20428;-88
2021/12/05 07:03:14;;;;;;;29.27;13.52;;;;;;;-0.59;73.71;99570.56;4815376;29;20035;-86
2021/12/05 07:05:55;;;;;;;26.15;13.13;;;;;;;-0.56;73.67;99585.22;4831645;29;20034;-84
2021/12/05 07:08:27;;;;;;;28.42;13.82;;;;;;;-0.55;73.93;99579.28;4847017;29;20043;-84
2021/12/05 07:16:51;;;;;;;;;;;;;;;-0.51;73.74;99586.31;4829956;29;20149;-84
2021/12/05 07:22:18;;;;;;;26.58;13.07;;;;;;;-0.43;73.62;99600.31;4824661;29;20065;-88
2021/12/05 07:24:50;;;;;;;27.13;14.02;;;;;;;-0.40;73.76;99602.16;4791922;29;20414;-85
2021/12/05 07:43:42;;;;;;;27.15;13.25;;;;;;;-0.17;73.29;99580.03;4798419;29;20081;-85
2021/12/05 07:46:10;;;;;;;30.52;13.40;;;;;;;0.10;72.52;99609.41;4797751;29;20478;-87
2021/12/05 07:48:39;;;;;;;30.13;13.90;;;;;;;0.01;72.27;99597.91;4797701;29;20054;-88
2021/12/05 07:51:21;;;;;;;24.95;12.82;;;;;;;-0.23;72.84;99586.66;4808549;29;20070;-88
2021/12/05 07:56:40;;;;;;;25.55;13.57;;;;;;;-0.02;72.70;99594.38;4807846;29;20069;-88
2021/12/05 08:15:59;;;;;;;25.40;12.75;;;;;;;0.56;71.25;99611.28;4794070;29;20065;-85
2021/12/05 08:18:37;;;;;;;31.52;14.40;;;;;;;0.64;71.21;99621.84;4799440;29;20075;-86
2021/12/05 08:21:09;;;;;;;27.67;14.77;;;;;;;0.80;70.88;99624.19;4801180;29;20520;-89
2021/12/05 08:23:42;;;;;;;25.95;15.30;;;;;;;0.70;70.55;99591.22;4811422;29;20058;-86
2021/12/05 08:26:19;;;;;;;25.65;13.60;;;;;;;0.65;70.14;99594.47;4802335;29;20154;-89
2021/12/05 08:34:41;;;;;;;25.52;13.98;;;;;;;0.54;70.79;99614.59;4818527;29;20035;-86
2021/12/05 09:21:38;;;;;;;23.23;11.90;;;;;;;0.88;69.39;99595.31;4818578;29;20516;-87
2021/12/05 10:09:35;;;;;;;28.85;15.20;;;;;;;0.73;70.20;99606.78;4780851;30;20432;-85
2021/12/05 10:11:56;;;;;;;28.42;15.10;;;;;;;0.89;70.62;99640.81;4777916;30;20039;-90
2021/12/05 10:35:43;;;;;;;24.63;12.90;;;;;;;1.48;69.41;99623.25;4833616;29;20121;-90
2021/12/05 10:39:05;;;;;;;24.10;12.90;;;;;;;1.31;70.01;99625.22;4829229;29;20066;-89
2021/12/05 10:44:14;;;;;;;24.67;13.93;;;;;;;1.00;70.28;99576.06;4821488;29;20055;-90
2021/12/05 10:46:49;;;;;;;25.65;13.13;;;;;;;0.86;70.03;99553.22;4794877;29;20147;-91
2021/12/05 10:49:20;;;;;;;24.83;13.07;;;;;;;1.11;71.01;99630.50;4813284;29;20069;-91
2021/12/05 10:51:57;;;;;;;25.58;12.90;;;;;;;1.13;70.71;99609.97;4815174;29;20065;-88
2021/12/05 10:54:31;;;;;;;23.98;13.10;;;;;;;1.18;70.67;99632.50;4815929;29;20055;-87
2021/12/05 10:57:03;;;;;;;24.17;12.25;;;;;;;0.90;70.73;99598.81;4818302;29;20147;-88
2021/12/05 10:59:39;;;;;;;21.73;12.65;;;;;;;1.08;71.15;99640.69;4820517;29;20082;-88
2021/12/05 11:02:20;;;;;;;23.95;12.05;;;;;;;1.02;70.66;99631.03;4825879;29;20066;-89
2021/12/05 11:04:52;;;;;;;23.13;11.98;;;;;;;1.04;70.80;99640.50;4814181;29;20138;-87
2021/12/05 11:07:23;;;;;;;23.40;12.13;;;;;;;1.02;71.09;99635.31;4796262;29;20062;-90
2021/12/05 11:09:57;;;;;;;21.55;11.93;;;;;;;0.96;71.13;99633.38;4813080;29;20065;-90
2021/12/05 11:12:31;;;;;;;23.38;11.82;;;;;;;0.89;71.04;99636.53;4797039;29;20055;-90
2021/12/05 11:15:13;;;;;;;23.77;12.05;;;;;;;0.93;71.25;99645.25;4815464;29;20054;-91
2021/12/05 11:17:46;;;;;;;22.90;12.07;;;;;;;0.87;71.57;99639.88;4802546;29;20085;-92
2021/12/05 11:20:29;;;;;;;26.42;12.65;;;;;;;0.84;70.99;99639.72;4805322;29;20086;-89
2021/12/05 11:22:57;;;;;;;23.33;12.27;;;;;;;0.85;71.76;99642.38;4828210;29;20108;-90
2021/12/05 11:25:28;;;;;;;22.08;12.10;;;;;;;0.92;71.13;99641.78;4813886;29;20081;-87
2021/12/05 11:27:59;;;;;;;22.00;12.18;;;;;;;0.89;71.51;99653.66;4829942;29;20059;-91
2021/12/05 11:30:36;;;;;;;22.52;12.32;;;;;;;0.84;71.61;99656.06;4829940;29;20038;-90
2021/12/05 11:33:19;;;;;;;25.83;12.48;;;;;;;0.81;71.27;99648.22;4829121;29;20071;-88
2021/12/05 11:35:54;;;;;;;23.70;11.63;;;;;;;0.76;71.60;99673.75;4817601;29;20059;-89
2021/12/05 11:38:25;;;;;;;21.23;12.38;;;;;;;0.75;71.47;99655.69;4813363;29;20059;-90
2021/12/05 11:41:14;;;;;;;20.23;11.57;;;;;;;0.69;72.15;99658.91;4831534;29;20058;-89
2021/12/05 11:43:54;;;;;;;23.48;12.38;;;;;;;0.85;71.66;99665.50;4830056;29;20066;-91
2021/12/05 11:46:28;;;;;;;;;;;;;;;0.63;71.72;99666.38;4829489;29;20054;-88
2021/12/05 11:49:24;;;;;;;22.98;12.38;;;;;;;0.72;71.83;99668.44;4828721;29;20023;-90
2021/12/05 11:52:02;;;;;;;23.20;12.75;;;;;;;0.70;71.97;99670.94;4803932;29;20077;-88
2021/12/05 11:54:38;;;;;;;24.77;12.85;;;;;;;0.66;72.13;99670.75;4805710;29;20063;-87
2021/12/05 11:57:24;;;;;;;;;;;;;;;0.41;72.18;99680.06;4826253;29;20058;-88
2021/12/05 12:00:17;;;;;;;23.60;11.90;;;;;;;0.41;72.86;99680.06;4827313;29;19981;-86
2021/12/05 12:02:46;;;;;;;23.17;13.05;;;;;;;0.35;72.80;99682.38;4825509;29;20120;-88
2021/12/05 12:05:18;;;;;;;22.80;12.97;;;;;;;0.41;73.14;99685.19;4825919;29;20062;-87
2021/12/05 12:07:53;;;;;;;26.23;13.73;;;;;;;0.37;72.90;99662.75;4826788;29;20114;-86
2021/12/05 12:10:26;;;;;;;23.20;13.13;;;;;;;0.51;72.92;99678.72;4826724;29;20115;-90
2021/12/05 12:13:01;;;;;;;23.92;12.95;;;;;;;0.49;72.98;99683.78;4824834;29;20439;-86
2021/12/05 12:15:31;;;;;;;27.63;14.45;;;;;;;0.49;72.92;99691.50;4824621;29;20065;-87
2021/12/05 12:18:11;;;;;;;25.42;13.95;;;;;;;0.45;73.03;99704.16;4826116;29;20492;-86
2021/12/05 12:20:40;;;;;;;;;;;;;;;0.23;73.45;99693.00;4825640;29;20054;-86
2021/12/05 12:23:08;;;;;;;24.90;12.45;;;;;;;0.29;73.13;99672.72;4824617;29;20436;-87
2021/12/05 12:25:38;;;;;;;24.80;13.50;;;;;;;0.09;73.58;99645.34;4824829;29;20050;-87
2021/12/05 12:28:08;;;;;;;23.60;12.95;;;;;;;0.35;73.27;99683.25;4827995;29;20135;-89
2021/12/05 12:30:38;;;;;;;24.42;12.43;;;;;;;0.30;73.43;99684.75;4826285;29;20054;-87
2021/12/05 12:33:13;;;;;;;24.50;12.82;;;;;;;0.14;73.43;99675.50;4825202;29;20090;-86
2021/12/05 12:35:44;;;;;;;24.90;13.10;;;;;;;0.10;73.24;99668.50;4824906;29;20524;-87
2021/12/05 12:38:17;;;;;;;24.80;12.40;;;;;;;0.01;73.60;99665.53;4830895;29;20064;-86
2021/12/05 12:40:50;;;;;;;23.23;12.38;;;;;;;-0.02;73.59;99660.28;4828293;29;20103;-87
2021/12/05 12:43:38;;;;;;;21.98;13.00;;;;;;;0.10;73.83;99678.75;4824760;29;20149;-88
2021/12/05 12:46:48;;;;;;;25.00;13.60;;;;;;;0.08;73.52;99689.78;4808677;29;20054;-89
2021/12/05 12:49:17;;;;;;;24.25;12.52;;;;;;;-0.03;73.91;99682.50;4825389;29;20065;-87
2021/12/05 12:52:06;;;;;;;24.92;13.52;;;;;;;-0.04;73.79;99692.72;4810055;29;20440;-86
2021/12/05 12:54:36;;;;;;;25.08;13.85;;;;;;;0.01;74.18;99691.22;4806278;29;20094;-87
2021/12/05 12:57:14;;;;;;;28.48;14.00;;;;;;;-0.03;73.68;99690.22;4806877;29;20067;-85
2021/12/05 12:59:56;;;;;;;23.65;13.75;;;;;;;-0.06;73.83;99694.34;4808285;29;20066;-87
2021/12/05 13:11:03;;;;;;;28.52;14.23;;;;;;;-0.10;74.20;99693.34;4832086;29;20058;-83
2021/12/05 13:13:32;;;;;;;27.83;14.07;;;;;;;0.09;74.01;99702.72;4835681;29;20072;-85
2021/12/05 13:16:14;;;;;;;25.70;14.15;;;;;;;0.15;74.03;99730.31;4836928;29;20161;-82
2021/12/05 13:18:45;;;;;;;27.75;14.60;;;;;;;0.13;73.74;99680.56;4821971;29;20063;-85
2021/12/05 13:21:17;;;;;;;25.30;14.20;;;;;;;0.28;73.32;99716.31;4811091;29;20051;-84
2021/12/05 13:23:50;;;;;;;26.50;15.52;;;;;;;0.26;73.58;99705.09;4807101;29;20066;-85
2021/12/05 13:26:36;;;;;;;26.38;14.48;;;;;;;0.29;73.45;99715.50;4827885;29;20572;-85
2021/12/05 13:29:15;;;;;;;25.58;13.85;;;;;;;0.36;73.43;99720.97;4807980;29;20127;-85
2021/12/05 13:31:45;;;;;;;26.13;13.90;;;;;;;0.37;73.54;99737.28;4800689;29;20085;-83
2021/12/05 13:34:27;;;;;;;25.58;13.00;;;;;;;0.43;73.45;99723.78;4821310;29;20062;-82
2021/12/05 13:37:24;;;;;;;24.40;13.32;;;;;;;0.38;73.23;99718.47;4810119;29;20115;-88
2021/12/05 13:40:06;;;;;;;25.70;13.52;;;;;;;0.37;73.38;99730.44;4812996;29;20596;-86
2021/12/05 13:42:49;;;;;;;28.42;14.20;;;;;;;0.27;73.60;99725.72;4799300;29;20057;-85
2021/12/05 13:45:27;;;;;;;26.58;12.75;;;;;;;0.19;73.59;99733.13;4793742;29;20112;-84
2021/12/05 13:48:00;;;;;;;26.58;14.02;;;;;;;0.09;73.72;99735.22;4816272;29;20084;-85
2021/12/05 13:50:37;;;;;;;28.60;14.57;;;;;;;-0.01;74.15;99727.09;4822089;29;20180;-85
2021/12/05 13:53:08;;;;;;;24.60;12.80;;;;;;;0.01;73.93;99731.44;4804921;29;20055;-85
2021/12/05 13:55:53;;;;;;;27.30;13.70;;;;;;;-0.06;73.86;99738.00;4812950;29;20150;-83
2021/12/05 13:58:38;;;;;;;27.58;13.63;;;;;;;-0.01;74.57;99739.06;4806140;29;20067;-87
2021/12/05 14:01:18;;;;;;;27.33;14.27;;;;;;;0.04;74.54;99741.84;4807614;29;20066;-89
2021/12/05 14:03:59;;;;;;;26.23;13.40;;;;;;;-0.15;73.72;99723.06;4810134;29;20066;-86
2021/12/05 14:06:28;;;;;;;25.63;13.57;;;;;;;-0.13;73.84;99718.00;4804081;29;20074;-84
2021/12/05 14:09:13;;;;;;;23.87;12.90;;;;;;;-0.18;74.09;99715.22;4804022;29;20075;-87
2021/12/05 14:11:46;;;;;;;26.15;13.40;;;;;;;-0.08;74.11;99743.06;4804640;29;20086;-85
2021/12/05 14:14:27;;;;;;;27.30;14.18;;;;;;;-0.07;74.30;99734.53;4797217;29;20116;-83
2021/12/05 14:17:04;;;;;;;26.00;12.88;;;;;;;-0.06;74.04;99743.16;4773271;30;20150;-86
2021/12/05 14:19:35;;;;;;;25.48;14.10;;;;;;;-0.11;74.20;99721.50;4802223;29;20062;-85
2021/12/05 14:22:08;;;;;;;30.40;15.60;;;;;;;-0.16;73.93;99740.97;4803302;29;20062;-86
2021/12/05 14:24:40;;;;;;;29.92;15.65;;;;;;;0.01;74.15;99763.13;4800824;29;20141;-86
2021/12/05 14:27:15;;;;;;;25.58;14.05;;;;;;;-0.03;73.83;99761.25;4804323;29;20096;-86
2021/12/05 14:29:48;;;;;;;26.95;14.15;;;;;;;-0.07;74.04;99747.38;4798129;29;20417;-84
2021/12/05 14:32:37;;;;;;;24.50;13.63;;;;;;;-0.13;73.78;99754.84;4803598;29;20050;-88
2021/12/05 14:35:18;;;;;;;25.83;14.40;;;;;;;0.07;74.41;99767.69;4807631;29;20047;-91
2021/12/05 14:37:50;;;;;;;26.38;14.57;;;;;;;0.08;74.06;99762.59;4801641;29;20138;-87
2021/12/05 14:40:30;;;;;;;27.45;14.35;;;;;;;0.05;73.36;99746.19;4801879;29;20489;-91
2021/12/05 14:43:05;;;;;;;26.15;14.05;;;;;;;0.11;73.56;99764.44;4800152;29;20139;-88
2021/12/05 14:45:37;;;;;;;24.67;13.27;;;;;;;0.24;73.61;99771.84;4799125;29;20055;-86
2021/12/05 14:48:13;;;;;;;27.88;14.50;;;;;;;0.27;72.77;99765.97;4775525;30;20055;-87
2021/12/05 14:50:53;;;;;;;26.05;13.95;;;;;;;0.14;72.79;99755.16;4791619;29;20060;-87
2021/12/05 14:53:24;;;;;;;24.17;14.00;;;;;;;0.24;73.16;99771.84;4775680;30;20059;-86
2021/12/05 14:55:58;;;;;;;27.13;13.80;;;;;;;0.19;73.23;99757.91;4792757;29;20062;-89
2021/12/05 14:58:31;;;;;;;28.75;14.50;;;;;;;0.12;72.78;99748.19;4779391;29;20063;-85
2021/12/05 15:01:00;;;;;;;25.08;13.07;;;;;;;0.25;73.42;99777.84;4799294;29;20070;-85
2021/12/05 15:03:34;;;;;;;26.50;13.63;;;;;;;0.16;73.44;99781.78;4803460;29;20150;-86
2021/12/05 15:06:06;;;;;;;25.67;13.63;;;;;;;0.28;73.36;99790.81;4790216;30;20154;-86
2021/12/05 15:08:36;;;;;;;24.33;14.27;;;;;;;0.27;72.96;99783.94;4794472;29;20086;-81
2021/12/05 15:11:15;;;;;;;26.05;14.07;;;;;;;0.14;73.13;99791.13;4789555;30;20063;-81
2021/12/05 15:13:42;;;;;;;26.05;14.60;;;;;;;0.02;73.21;99805.97;4805305;29;20136;-83
2021/12/05 15:16:11;;;;;;;29.70;14.55;;;;;;;0.01;73.54;99803.34;4807805;29;20062;-85
2021/12/05 15:18:39;;;;;;;29.70;15.20;;;;;;;-0.15;73.34;99781.22;4826468;29;20058;-84
2021/12/05 15:21:06;;;;;;;28.52;14.80;;;;;;;-0.19;73.26;99774.19;4826307;29;20511;-85
2021/12/05 15:23:40;;;;;;;30.50;16.08;;;;;;;-0.10;73.75;99813.16;4827721;29;20127;-82
2021/12/05 15:26:08;;;;;;;28.10;14.70;;;;;;;-0.13;73.38;99802.72;4827067;29;20062;-87
2021/12/05 15:28:36;;;;;;;27.95;13.13;;;;;;;-0.14;73.98;99807.00;4802709;29;20458;-84
2021/12/05 15:31:10;;;;;;;27.88;14.75;;;;;;;-0.18;73.93;99801.66;4805334;29;20055;-84
2021/12/05 15:33:37;;;;;;;26.85;14.88;;;;;;;-0.11;73.09;99814.81;4797851;29;20054;-89
2021/12/05 15:36:07;;;;;;;28.00;15.07;;;;;;;-0.12;73.58;99807.94;4804364;29;20050;-87
2021/12/05 15:38:38;;;;;;;26.23;14.52;;;;;;;-0.13;73.65;99795.03;4810129;29;20059;-86
2021/12/05 15:41:10;;;;;;;26.48;14.25;;;;;;;-0.17;73.29;99790.56;4810819;29;20063;-82
2021/12/05 15:43:41;;;;;;;32.13;15.73;;;;;;;-0.13;73.63;99802.72;4807208;29;20062;-86
2021/12/05 15:46:12;;;;;;;29.75;15.77;;;;;;;-0.12;73.52;99804.50;4819578;29;20050;-88
2021/12/05 15:48:47;;;;;;;28.10;14.32;;;;;;;-0.16;73.30;99806.03;4826147;29;20111;-89
2021/12/05 15:51:14;;;;;;;27.67;15.40;;;;;;;-0.16;73.28;99816.31;4824871;29;20096;-84
2021/12/05 15:53:43;;;;;;;28.52;15.02;;;;;;;-0.13;73.45;99819.03;4824883;29;20079;-85
2021/12/05 15:56:14;;;;;;;30.88;14.68;;;;;;;-0.16;73.18;99797.47;4818101;29;20100;-84
2021/12/05 15:59:02;;;;;;;29.63;16.52;;;;;;;-0.01;73.44;99816.13;4807192;29;20066;-83
2021/12/05 16:01:30;;;;;;;29.92;15.65;;;;;;;-0.12;73.00;99778.81;4805352;29;20061;-83
2021/12/05 16:04:02;;;;;;;33.30;15.32;;;;;;;0.07;72.97;99803.63;4797765;29;20133;-84
2021/12/05 16:06:38;;;;;;;29.05;15.82;;;;;;;0.03;72.55;99802.59;4806557;29;20062;-84
2021/12/05 16:09:14;;;;;;;40.13;18.75;;;;;;;0.02;72.59;99811.09;4792730;29;20087;-83
2021/12/05 16:11:42;;;;;;;35.60;17.55;;;;;;;-0.02;72.89;99804.09;4789309;30;20051;-83
2021/12/05 16:14:10;;;;;;;32.90;17.17;;;;;;;-0.12;73.09;99802.81;4788881;30;20051;-85
2021/12/05 16:16:41;;;;;;;30.40;17.30;;;;;;;-0.10;73.18;99818.28;4796481;29;20536;-84
2021/12/05 16:19:13;;;;;;;34.63;16.75;;;;;;;-0.24;73.37;99791.97;4790832;29;20055;-82
2021/12/05 16:21:41;;;;;;;30.90;15.52;;;;;;;-0.05;73.12;99811.66;4813123;29;20090;-82
2021/12/05 16:24:20;;;;;;;30.60;15.77;;;;;;;-0.01;72.50;99837.53;4825607;29;20528;-84
2021/12/05 16:26:51;;;;;;;31.52;16.02;;;;;;;0.00;72.67;99828.16;4825687;29;20058;-83
2021/12/05 16:29:25;;;;;;;30.48;16.58;;;;;;;0.04;72.59;99827.47;4824507;29;20070;-84
2021/12/05 16:31:57;;;;;;;35.47;16.63;;;;;;;-0.25;72.41;99783.41;4828650;29;20054;-82
2021/12/05 16:34:30;;;;;;;28.45;15.05;;;;;;;0.08;72.91;99818.22;4832412;29;20070;-84
2021/12/05 16:37:07;;;;;;;30.83;15.73;;;;;;;0.20;72.23;99834.19;4825156;29;20082;-88
2021/12/05 16:39:51;;;;;;;31.00;15.57;;;;;;;0.18;72.30;99844.38;4806857;29;20512;-83
2021/12/05 16:42:23;;;;;;;31.50;16.65;;;;;;;0.11;72.51;99837.22;4806955;29;20069;-85
2021/12/05 16:44:54;;;;;;;29.90;15.75;;;;;;;0.20;71.98;99855.63;4807826;29;20137;-83
2021/12/05 16:47:29;;;;;;;27.63;14.55;;;;;;;0.12;71.62;99851.81;4805624;29;20065;-83
2021/12/05 16:50:00;;;;;;;28.88;15.02;;;;;;;0.02;72.05;99841.06;4806545;29;20058;-81
2021/12/05 16:52:39;;;;;;;31.63;15.48;;;;;;;0.08;72.10;99855.06;4805694;29;20150;-85
2021/12/05 16:55:18;;;;;;;29.05;15.32;;;;;;;0.00;71.88;99853.84;4806709;29;20062;-81
2021/12/05 16:57:57;;;;;;;28.75;15.00;;;;;;;0.05;72.39;99851.50;4809287;29;20080;-81
2021/12/05 17:00:27;;;;;;;32.55;15.85;;;;;;;0.03;72.22;99842.84;4811744;29;20115;-81
2021/12/05 17:03:00;;;;;;;28.58;14.68;;;;;;;0.09;71.86;99861.09;4807145;29;20054;-84
2021/12/05 17:05:47;;;;;;;30.75;16.10;;;;;;;0.10;71.90;99850.00;4806049;29;20481;-84
2021/12/05 17:08:24;;;;;;;28.63;13.82;;;;;;;0.06;71.91;99864.38;4806577;29;20054;-82
2021/12/05 17:10:59;;;;;;;27.20;15.13;;;;;;;0.11;71.91;99860.34;4823079;29;20432;-84